Time;durP1;ratioP1;P1;durP2;ratioP2;P2;SDS_P1;SDS_P2;PMS_P1;PMS_P2;Temp;Humidity;BMP_temperature;BMP_pressure;BME280_temperature;BME280_humidity;BME280_pressure;Samples;Min_cycle;Max_cycle;Signal;HPM_P1;HPM_P2
2024/02/14 00:01:31;;;;;;;7.45;4.60;;;;;;;3.97;84.49;93626.88;5063660;28;20092;-78
2024/02/14 00:03:56;;;;;;;7.85;4.45;;;;;;;3.97;83.83;93630.28;5063864;28;20040;-78
2024/02/14 00:06:23;;;;;;;7.80;4.32;;;;;;;4.03;83.63;93631.03;5063735;28;20020;-77
2024/02/14 00:08:49;;;;;;;7.05;4.53;;;;;;;4.01;83.14;93638.44;5063568;28;20035;-77
2024/02/14 00:11:14;;;;;;;9.75;5.30;;;;;;;4.02;83.31;93638.13;5063526;28;20040;-77
2024/02/14 00:13:39;;;;;;;7.47;4.28;;;;;;;4.02;83.00;93634.72;5063645;28;20349;-77
2024/02/14 00:16:06;;;;;;;7.95;4.05;;;;;;;4.11;82.51;93646.25;5063232;28;20024;-77
2024/02/14 00:18:31;;;;;;;6.57;3.90;;;;;;;4.10;82.65;93655.22;5063200;28;20294;-76
2024/02/14 00:20:57;;;;;;;7.55;4.63;;;;;;;4.08;82.37;93646.81;5063183;28;20021;-76
2024/02/14 00:23:22;;;;;;;7.60;4.47;;;;;;;4.10;82.55;93652.59;5062110;28;20013;-76
2024/02/14 00:25:47;;;;;;;6.97;4.25;;;;;;;4.17;81.95;93658.34;5061999;28;20048;-75
2024/02/14 00:28:13;;;;;;;6.93;4.45;;;;;;;4.07;82.04;93657.63;5063102;28;20031;-76
2024/02/14 00:30:38;;;;;;;7.78;4.75;;;;;;;4.18;82.57;93657.25;5063207;28;20031;-76
2024/02/14 00:33:04;;;;;;;9.27;4.63;;;;;;;4.16;82.08;93655.97;5061834;28;20029;-74
2024/02/14 00:35:29;;;;;;;7.78;4.57;;;;;;;4.11;82.05;93659.44;5062997;28;20025;-75
2024/02/14 00:37:55;;;;;;;8.38;4.50;;;;;;;4.05;82.20;93646.56;5063104;28;20105;-75
2024/02/14 00:40:20;;;;;;;9.43;4.93;;;;;;;4.09;82.47;93656.31;5062930;28;20020;-75
2024/02/14 00:42:46;;;;;;;12.63;5.07;;;;;;;4.10;82.55;93657.88;5062827;28;20052;-75
2024/02/14 00:45:12;;;;;;;7.93;5.07;;;;;;;4.06;82.34;93656.84;5062888;28;20197;-75
2024/02/14 00:47:37;;;;;;;7.65;4.97;;;;;;;4.06;82.31;93650.78;5062826;28;20020;-75
2024/02/14 00:50:03;;;;;;;6.93;4.50;;;;;;;4.10;82.30;93651.81;5062810;28;20069;-75
2024/02/14 00:52:28;;;;;;;10.13;5.72;;;;;;;4.17;82.38;93655.69;5062785;28;20342;-75
2024/02/14 00:54:54;;;;;;;8.20;5.60;;;;;;;4.21;81.92;93659.34;5062990;28;20097;-76
2024/02/14 00:57:20;;;;;;;7.13;4.60;;;;;;;4.21;81.59;93664.63;5062633;28;20083;-75
2024/02/14 00:59:46;;;;;;;11.82;4.85;;;;;;;4.19;81.61;93658.84;5062628;28;20130;-75
2024/02/14 01:02:11;;;;;;;8.77;5.72;;;;;;;4.09;81.87;93658.94;5062540;28;20029;-76
2024/02/14 01:04:37;;;;;;;7.63;4.82;;;;;;;4.10;81.93;93655.22;5062479;28;20028;-75
2024/02/14 01:07:03;;;;;;;9.13;5.28;;;;;;;4.18;82.35;93654.63;5062584;28;20021;-75
2024/02/14 01:09:28;;;;;;;10.10;5.07;;;;;;;4.14;82.46;93658.88;5066232;28;20358;-75
2024/02/14 01:11:54;;;;;;;8.93;5.28;;;;;;;4.13;81.45;93656.50;5066824;28;20032;-75
2024/02/14 01:14:19;;;;;;;9.80;5.90;;;;;;;4.15;81.71;93659.66;5066560;28;20052;-75
2024/02/14 01:16:45;;;;;;;8.10;4.95;;;;;;;4.02;81.71;93656.59;5066670;28;20025;-75
2024/02/14 01:19:11;;;;;;;6.55;4.10;;;;;;;4.07;81.50;93668.97;5066573;28;20201;-76
2024/02/14 01:21:37;;;;;;;7.88;4.57;;;;;;;4.12;81.81;93652.31;5066549;28;20029;-76
2024/02/14 01:24:05;;;;;;;10.27;5.22;;;;;;;4.06;81.23;93671.88;5066512;28;20021;-76
2024/02/14 01:26:32;;;;;;;11.18;5.47;;;;;;;4.11;81.02;93659.44;5065161;28;20121;-76
2024/02/14 01:28:57;;;;;;;8.30;5.00;;;;;;;4.09;81.08;93661.56;5066525;28;20047;-76
2024/02/14 01:31:22;;;;;;;8.15;5.35;;;;;;;4.17;81.42;93653.06;5066558;28;20025;-76
2024/02/14 01:33:48;;;;;;;9.15;5.80;;;;;;;4.13;80.98;93654.69;5066311;28;20319;-74
2024/02/14 01:36:13;;;;;;;8.70;5.50;;;;;;;4.06;80.62;93648.94;5066169;28;20096;-74
2024/02/14 01:38:39;;;;;;;8.43;5.90;;;;;;;4.10;80.72;93663.13;5066112;28;20049;-74
2024/02/14 01:41:05;;;;;;;10.15;5.57;;;;;;;4.01;80.77;93644.50;5066197;28;20196;-74
2024/02/14 01:43:31;;;;;;;10.85;6.15;;;;;;;4.02;80.73;93658.47;5066262;28;20088;-74
2024/02/14 01:46:05;;;;;;;9.05;5.57;;;;;;;4.02;80.80;93663.72;5066091;28;20032;-74
2024/02/14 01:48:31;;;;;;;10.43;6.35;;;;;;;4.02;80.84;93655.81;5066085;28;20021;-74
2024/02/14 01:50:57;;;;;;;7.95;5.10;;;;;;;4.04;80.61;93658.19;5066083;28;20139;-74
2024/02/14 01:53:25;;;;;;;11.68;6.20;;;;;;;4.06;80.73;93648.16;5066296;28;20235;-74
2024/02/14 01:55:50;;;;;;;9.48;6.03;;;;;;;4.05;80.79;93647.38;5065969;28;20029;-74
2024/02/14 01:58:16;;;;;;;10.68;5.70;;;;;;;4.05;80.50;93663.19;5065708;28;20140;-74
2024/02/14 02:00:42;;;;;;;9.15;5.40;;;;;;;4.01;80.69;93660.31;5065643;28;20036;-74
2024/02/14 02:03:08;;;;;;;9.80;4.68;;;;;;;3.97;80.99;93653.25;5065897;28;20029;-74
2024/02/14 02:05:34;;;;;;;8.88;5.28;;;;;;;3.96;80.65;93641.88;5065890;28;20056;-74
2024/02/14 02:07:59;;;;;;;8.93;5.45;;;;;;;3.99;80.89;93643.19;5065637;28;20025;-74
2024/02/14 02:10:26;;;;;;;9.20;5.72;;;;;;;4.00;81.33;93650.81;5065874;28;20017;-74
2024/02/14 02:12:58;;;;;;;9.55;6.45;;;;;;;3.96;81.07;93657.72;5065842;28;20047;-74
2024/02/14 02:15:24;;;;;;;7.93;5.00;;;;;;;3.94;81.61;93661.69;5065673;28;20093;-73
2024/02/14 02:17:52;;;;;;;7.95;5.00;;;;;;;3.89;81.55;93662.53;5065595;28;20033;-73
2024/02/14 02:20:18;;;;;;;11.07;5.72;;;;;;;3.90;80.87;93663.31;5064188;28;20029;-73
2024/02/14 02:22:50;;;;;;;9.38;5.57;;;;;;;3.95;81.41;93663.28;5065329;28;20032;-74
2024/02/14 02:25:16;;;;;;;13.93;5.88;;;;;;;3.93;80.98;93658.28;5065469;28;20044;-75
2024/02/14 02:27:41;;;;;;;10.43;5.80;;;;;;;3.92;81.03;93667.22;5065243;28;20036;-74
2024/02/14 02:30:08;;;;;;;8.93;5.63;;;;;;;3.97;80.88;93661.16;5065124;28;20024;-75
2024/02/14 02:32:33;;;;;;;8.65;5.40;;;;;;;3.95;80.82;93663.28;5065341;28;20029;-75
2024/02/14 02:34:59;;;;;;;9.82;5.40;;;;;;;4.01;80.68;93670.09;5065363;28;20066;-76
2024/02/14 02:37:26;;;;;;;9.88;5.82;;;;;;;4.00;79.82;93671.91;5064126;28;20056;-75
2024/02/14 02:39:51;;;;;;;9.77;5.05;;;;;;;3.97;79.31;93669.84;5064005;28;20053;-75
2024/02/14 02:42:18;;;;;;;9.68;5.35;;;;;;;4.01;79.22;93675.38;5064964;28;20170;-75
2024/02/14 02:44:46;;;;;;;9.23;5.28;;;;;;;4.01;79.40;93672.72;5065088;28;20079;-76
2024/02/14 02:47:12;;;;;;;10.50;5.47;;;;;;;3.99;79.00;93673.00;5065015;28;20092;-76
2024/02/14 02:49:38;;;;;;;13.05;5.90;;;;;;;4.00;78.84;93681.69;5064900;28;20025;-77
2024/02/14 02:52:03;;;;;;;8.18;5.18;;;;;;;4.03;78.61;93667.97;5065002;28;20025;-76
2024/02/14 02:54:29;;;;;;;8.07;5.13;;;;;;;4.01;78.55;93684.06;5064931;28;20193;-75
2024/02/14 02:56:54;;;;;;;10.48;6.05;;;;;;;4.00;78.32;93687.75;5064846;28;20032;-75
2024/02/14 02:59:19;;;;;;;10.05;5.82;;;;;;;3.97;78.61;93685.66;5064542;28;20017;-75
2024/02/14 03:01:45;;;;;;;11.25;6.18;;;;;;;3.95;78.32;93682.53;5064743;28;20036;-75
2024/02/14 03:04:13;;;;;;;11.20;5.80;;;;;;;3.99;78.18;93688.81;5064539;28;20096;-76
2024/02/14 03:06:38;;;;;;;10.70;5.50;;;;;;;4.03;78.49;93683.78;5064795;28;20295;-75
2024/02/14 03:09:05;;;;;;;11.98;6.03;;;;;;;3.98;77.74;93686.44;5064605;28;20028;-75
2024/02/14 03:11:31;;;;;;;10.85;5.75;;;;;;;3.94;77.93;93702.03;5064446;28;20032;-75
2024/02/14 03:13:56;;;;;;;14.00;5.95;;;;;;;4.02;77.91;93701.44;5064306;28;20040;-75
2024/02/14 03:16:24;;;;;;;8.95;5.28;;;;;;;3.97;77.31;93709.41;5064942;28;20078;-75
2024/02/14 03:18:49;;;;;;;11.85;5.88;;;;;;;4.00;77.57;93711.47;5064458;28;20025;-76
2024/02/14 03:21:14;;;;;;;9.02;6.40;;;;;;;4.02;77.58;93713.84;5064619;28;20036;-76
2024/02/14 03:23:41;;;;;;;11.50;5.82;;;;;;;4.00;77.69;93710.69;5064412;28;20032;-75
2024/02/14 03:26:07;;;;;;;11.48;5.38;;;;;;;4.06;77.02;93714.09;5063955;28;20024;-75
2024/02/14 03:28:33;;;;;;;11.50;6.35;;;;;;;4.07;77.28;93724.38;5064186;28;20031;-76
2024/02/14 03:30:59;;;;;;;13.18;5.50;;;;;;;3.96;76.92;93723.63;5064009;28;20049;-76
2024/02/14 03:33:24;;;;;;;8.25;4.70;;;;;;;4.01;76.99;93723.63;5064214;28;20061;-76
2024/02/14 03:35:50;;;;;;;9.00;5.35;;;;;;;3.98;76.86;93718.88;5063043;28;20036;-76
2024/02/14 03:38:27;;;;;;;11.30;5.93;;;;;;;4.01;76.88;93731.53;5063861;28;20045;-76
2024/02/14 03:40:54;;;;;;;11.82;6.00;;;;;;;4.02;76.32;93729.66;5064241;28;20032;-77
2024/02/14 03:43:19;;;;;;;9.73;5.72;;;;;;;4.00;76.58;93737.06;5064483;28;20031;-76
2024/02/14 03:45:46;;;;;;;8.73;4.88;;;;;;;4.00;76.16;93745.75;5063807;28;20335;-76
2024/02/14 03:48:11;;;;;;;9.18;5.45;;;;;;;4.03;76.17;93749.72;5063837;28;20031;-76
2024/02/14 03:50:40;;;;;;;11.20;5.72;;;;;;;4.03;75.82;93739.16;5063765;28;20087;-76
2024/02/14 03:53:05;;;;;;;10.00;5.65;;;;;;;4.04;76.54;93739.94;5063642;28;20021;-76
2024/02/14 03:55:31;;;;;;;10.02;5.78;;;;;;;4.02;76.14;93745.50;5063673;28;20078;-76
2024/02/14 03:57:56;;;;;;;14.88;6.43;;;;;;;3.99;76.27;93746.84;5063591;28;20021;-76
2024/02/14 04:00:22;;;;;;;9.25;5.80;;;;;;;4.00;75.79;93750.25;5062505;28;20033;-76
2024/02/14 04:02:48;;;;;;;8.73;4.65;;;;;;;3.94;75.63;93738.94;5063471;28;20074;-75
2024/02/14 04:05:14;;;;;;;12.32;6.63;;;;;;;4.03;76.04;93741.81;5063528;28;20029;-76
2024/02/14 04:07:40;;;;;;;10.82;5.97;;;;;;;3.94;75.68;93751.34;5062319;28;20323;-77
2024/02/14 04:10:06;;;;;;;8.25;5.18;;;;;;;3.94;75.86;93756.63;5063395;28;20021;-76
2024/02/14 04:12:31;;;;;;;10.73;5.53;;;;;;;3.95;75.74;93750.31;5063381;28;20109;-76
2024/02/14 04:14:57;;;;;;;9.40;5.53;;;;;;;3.94;75.77;93748.72;5062163;28;20025;-76
2024/02/14 04:17:24;;;;;;;8.10;5.18;;;;;;;3.94;75.43;93759.25;5063648;28;20021;-76
2024/02/14 04:19:49;;;;;;;9.68;5.75;;;;;;;3.88;75.34;93763.00;5063444;28;20071;-76
2024/02/14 04:22:15;;;;;;;10.32;5.78;;;;;;;3.93;75.79;93763.75;5063278;28;20223;-77
2024/02/14 04:24:40;;;;;;;10.30;5.63;;;;;;;3.87;75.62;93769.31;5063021;28;20088;-77
2024/02/14 04:27:06;;;;;;;8.95;5.20;;;;;;;3.78;75.72;93755.91;5063321;28;20096;-77
2024/02/14 04:29:33;;;;;;;11.23;6.40;;;;;;;3.74;76.05;93773.34;5063103;28;20021;-75
2024/02/14 04:32:02;;;;;;;10.63;6.40;;;;;;;3.77;76.11;93797.31;5063187;28;20058;-75
2024/02/14 04:34:27;;;;;;;12.35;6.97;;;;;;;3.78;76.49;93774.38;5063012;28;20032;-75
2024/02/14 04:36:53;;;;;;;10.48;6.63;;;;;;;3.78;76.43;93777.78;5063025;28;20028;-75
2024/02/14 04:39:19;;;;;;;10.75;6.68;;;;;;;3.74;76.49;93779.41;5062710;28;20098;-76
2024/02/14 04:41:44;;;;;;;12.35;6.55;;;;;;;3.75;76.38;93782.84;5062842;28;20043;-76
2024/02/14 04:44:10;;;;;;;11.32;6.60;;;;;;;3.83;76.71;93787.53;5062342;28;20020;-74
2024/02/14 04:46:35;;;;;;;12.10;6.88;;;;;;;3.77;76.39;93791.25;5062717;28;20021;-74
2024/02/14 04:49:04;;;;;;;12.43;6.28;;;;;;;3.82;76.03;93794.63;5062836;28;20060;-74
2024/02/14 04:51:30;;;;;;;15.27;5.82;;;;;;;3.80;76.66;93786.22;5062837;28;20020;-75
2024/02/14 04:53:59;;;;;;;12.23;7.80;;;;;;;3.82;76.80;93805.19;5062920;28;20083;-75
2024/02/14 04:56:26;;;;;;;9.68;6.05;;;;;;;3.85;76.24;93792.53;5063034;28;20051;-75
2024/02/14 04:58:53;;;;;;;8.63;5.75;;;;;;;3.82;75.93;93792.00;5062777;28;20017;-75
2024/02/14 05:01:18;;;;;;;11.93;6.72;;;;;;;3.79;76.30;93800.47;5062593;28;20218;-74
2024/02/14 05:03:44;;;;;;;14.07;7.10;;;;;;;3.82;76.29;93805.19;5062638;28;20056;-74
2024/02/14 05:06:09;;;;;;;12.48;7.10;;;;;;;3.87;76.15;93795.69;5062686;28;20035;-74
2024/02/14 05:08:34;;;;;;;12.05;7.70;;;;;;;3.80;76.17;93804.66;5062681;28;20025;-75
2024/02/14 05:11:00;;;;;;;10.77;6.68;;;;;;;3.85;76.44;93818.88;5062730;28;20051;-75
2024/02/14 05:13:26;;;;;;;13.15;6.70;;;;;;;3.80;75.99;93817.84;5062503;28;20231;-77
2024/02/14 05:15:51;;;;;;;13.38;6.68;;;;;;;3.78;75.79;93817.34;5062530;28;20063;-76
2024/02/14 05:18:16;;;;;;;11.63;7.25;;;;;;;3.85;76.21;93817.06;5061705;28;20312;-76
2024/02/14 05:20:42;;;;;;;15.43;7.03;;;;;;;3.80;75.76;93833.66;5062469;28;20017;-77
2024/02/14 05:23:08;;;;;;;12.68;7.47;;;;;;;3.78;76.09;93843.69;5062387;28;20025;-75
2024/02/14 05:25:33;;;;;;;14.98;7.07;;;;;;;3.86;75.88;93825.75;5062548;28;20028;-75
2024/02/14 05:28:00;;;;;;;13.57;7.05;;;;;;;3.83;76.22;93845.53;5062169;28;20029;-75
2024/02/14 05:30:26;;;;;;;14.75;8.07;;;;;;;3.76;76.40;93837.13;5062521;28;20021;-75
2024/02/14 05:32:54;;;;;;;14.02;8.25;;;;;;;3.76;76.08;93856.38;5062515;28;20021;-76
2024/02/14 05:35:20;;;;;;;12.65;7.63;;;;;;;3.78;76.62;93862.16;5062402;28;20056;-77
2024/02/14 05:37:49;;;;;;;12.60;6.43;;;;;;;3.75;76.28;93857.44;5062274;28;20219;-76
2024/02/14 05:40:14;;;;;;;13.52;9.25;;;;;;;3.78;77.20;93861.38;5062408;28;20323;-77
2024/02/14 05:42:40;;;;;;;12.98;8.52;;;;;;;3.74;76.61;93857.69;5062231;28;20055;-76
2024/02/14 05:45:06;;;;;;;10.52;6.88;;;;;;;3.77;76.97;93865.88;5062408;28;20021;-76
2024/02/14 05:47:31;;;;;;;13.30;6.95;;;;;;;3.76;76.51;93874.03;5062510;28;20044;-77
2024/02/14 05:49:57;;;;;;;13.80;8.05;;;;;;;3.68;75.77;93875.38;5094685;28;20248;-75
2024/02/14 05:52:22;;;;;;;14.27;8.13;;;;;;;3.73;75.64;93870.09;5062577;28;20246;-74
2024/02/14 05:54:47;;;;;;;12.48;7.35;;;;;;;3.72;75.71;93875.63;5064115;28;20024;-75
2024/02/14 05:57:13;;;;;;;11.32;7.53;;;;;;;3.71;75.83;93887.25;5065953;28;20023;-75
2024/02/14 05:59:39;;;;;;;12.93;7.43;;;;;;;3.70;75.22;93883.81;5065902;28;20017;-75
2024/02/14 06:02:05;;;;;;;13.23;7.65;;;;;;;3.73;75.25;93877.22;5065774;28;20331;-76
2024/02/14 06:04:31;;;;;;;14.30;7.13;;;;;;;3.70;75.04;93889.06;5065818;28;20017;-75
2024/02/14 06:06:56;;;;;;;16.30;7.82;;;;;;;3.73;75.10;93893.81;5066094;28;20028;-75
2024/02/14 06:09:21;;;;;;;12.77;7.82;;;;;;;3.77;75.35;93896.72;5065821;28;20274;-74
2024/02/14 06:11:47;;;;;;;12.75;8.52;;;;;;;3.71;74.46;93910.97;5065584;28;20021;-74
2024/02/14 06:14:13;;;;;;;13.95;7.65;;;;;;;3.71;74.61;93903.06;5065295;28;20035;-74
2024/02/14 06:16:38;;;;;;;11.55;7.72;;;;;;;3.73;74.42;93917.56;5065488;28;20021;-74
2024/02/14 06:19:07;;;;;;;11.68;7.40;;;;;;;3.63;74.27;93922.84;5064254;28;20029;-75
2024/02/14 06:21:32;;;;;;;10.50;6.70;;;;;;;3.68;74.62;93914.91;5064588;28;20033;-73
2024/02/14 06:23:58;;;;;;;12.02;7.13;;;;;;;3.69;74.63;93911.25;5065257;28;20314;-74
2024/02/14 06:26:24;;;;;;;13.63;7.10;;;;;;;3.63;73.69;93911.53;5064599;28;20039;-74
2024/02/14 06:28:54;;;;;;;10.70;6.80;;;;;;;3.62;74.06;93916.00;5065368;28;20278;-75
2024/02/14 06:31:20;;;;;;;13.93;7.00;;;;;;;3.56;74.11;93930.25;5065422;28;20016;-74
2024/02/14 06:33:45;;;;;;;11.77;7.80;;;;;;;3.59;74.31;93917.31;5065128;28;20028;-74
2024/02/14 06:36:11;;;;;;;13.52;7.43;;;;;;;3.60;74.13;93928.66;5064977;28;20016;-74
2024/02/14 06:38:36;;;;;;;11.52;6.50;;;;;;;3.56;73.69;93932.88;5064927;28;20071;-74
2024/02/14 06:41:01;;;;;;;10.98;6.40;;;;;;;3.61;73.38;93925.75;5064936;28;20035;-74
2024/02/14 06:43:29;;;;;;;11.63;6.30;;;;;;;3.66;73.41;93924.94;5065073;28;20024;-73
2024/02/14 06:45:55;;;;;;;11.15;6.88;;;;;;;3.67;73.23;93928.38;5064929;28;20016;-74
2024/02/14 06:48:23;;;;;;;10.65;6.10;;;;;;;3.68;72.77;93933.38;5064781;28;20032;-74
2024/02/14 06:50:49;;;;;;;11.93;7.00;;;;;;;3.67;73.15;93934.44;5065045;28;20055;-74
2024/02/14 06:53:14;;;;;;;14.40;7.43;;;;;;;3.71;73.10;93938.13;5064941;28;20242;-74
2024/02/14 06:55:40;;;;;;;12.65;6.28;;;;;;;3.70;72.40;93947.06;5064558;28;20021;-72
2024/02/14 06:58:05;;;;;;;10.25;6.53;;;;;;;3.67;72.64;93947.63;5064593;28;20020;-74
2024/02/14 07:00:30;;;;;;;12.95;6.50;;;;;;;3.57;72.80;93948.44;5064610;28;20029;-75
2024/02/14 07:02:56;;;;;;;16.10;6.75;;;;;;;3.64;72.99;93956.03;5064710;28;20367;-75
2024/02/14 07:05:21;;;;;;;11.70;6.85;;;;;;;3.68;72.61;93938.63;5064373;28;20065;-74
2024/02/14 07:07:47;;;;;;;12.13;6.43;;;;;;;3.70;72.64;93944.44;5064183;28;20028;-74
2024/02/14 07:10:12;;;;;;;12.45;6.88;;;;;;;3.65;72.93;93955.00;5064570;28;20205;-74
2024/02/14 07:12:38;;;;;;;9.15;6.28;;;;;;;3.65;72.55;93960.28;5064467;28;20223;-74
2024/02/14 07:15:04;;;;;;;10.07;5.93;;;;;;;3.58;72.19;93975.56;5064291;28;20024;-73
2024/02/14 07:17:30;;;;;;;10.45;6.63;;;;;;;3.59;72.47;93977.16;5064126;28;20043;-73
2024/02/14 07:19:56;;;;;;;12.63;6.90;;;;;;;3.66;72.65;93969.75;5064334;28;20033;-72
2024/02/14 07:22:21;;;;;;;14.65;7.13;;;;;;;3.74;72.50;93971.84;5063307;28;20025;-73
2024/02/14 07:24:47;;;;;;;11.02;6.90;;;;;;;3.79;72.55;93974.47;5064247;28;20223;-73
2024/02/14 07:27:14;;;;;;;17.45;6.93;;;;;;;3.86;72.24;93974.19;5064186;28;20104;-72
2024/02/14 07:29:40;;;;;;;14.18;6.53;;;;;;;3.95;72.02;93969.19;5063990;28;20246;-73
2024/02/14 07:32:06;;;;;;;10.27;5.85;;;;;;;4.00;71.79;93974.44;5063962;28;20025;-73
2024/02/14 07:34:32;;;;;;;13.32;7.15;;;;;;;3.98;72.04;93987.09;5064618;28;20028;-73
2024/02/14 07:36:57;;;;;;;10.30;5.45;;;;;;;3.96;71.01;93973.38;5063955;28;20063;-72
2024/02/14 07:39:22;;;;;;;9.85;5.63;;;;;;;3.94;71.33;93975.50;5064113;28;20080;-73
2024/02/14 07:41:48;;;;;;;10.75;5.28;;;;;;;3.87;71.12;93970.50;5063845;28;20091;-73
2024/02/14 07:44:13;;;;;;;17.65;5.47;;;;;;;3.81;71.27;93980.28;5063713;28;20087;-73
2024/02/14 07:46:39;;;;;;;11.63;6.10;;;;;;;3.75;70.99;93989.25;5063746;28;20071;-73
2024/02/14 07:49:04;;;;;;;9.63;4.95;;;;;;;3.70;70.97;93996.38;5063721;28;20035;-73
2024/02/14 07:51:36;;;;;;;8.68;5.05;;;;;;;3.54;71.80;93988.50;5063671;28;20021;-73
2024/02/14 07:54:02;;;;;;;7.55;4.90;;;;;;;3.51;71.87;94004.84;5063415;28;20025;-73
2024/02/14 07:56:27;;;;;;;8.48;5.45;;;;;;;3.44;72.51;93992.97;5063476;28;20327;-72
2024/02/14 07:58:53;;;;;;;8.93;5.40;;;;;;;3.40;72.98;94001.41;5063647;28;20055;-73
2024/02/14 08:01:19;;;;;;;9.20;5.82;;;;;;;3.38;73.71;94005.38;5063294;28;20242;-73
2024/02/14 08:03:46;;;;;;;10.40;6.28;;;;;;;3.39;74.38;94007.72;5063418;28;20035;-73
2024/02/14 08:06:11;;;;;;;12.25;6.15;;;;;;;3.30;74.66;94006.69;5063370;28;20021;-73
2024/02/14 08:08:37;;;;;;;12.48;6.07;;;;;;;3.34;75.07;93993.78;5063334;28;20052;-74
2024/02/14 08:11:02;;;;;;;13.65;6.53;;;;;;;3.38;75.18;94016.72;5063311;28;20024;-73
2024/02/14 08:13:28;;;;;;;10.90;5.32;;;;;;;3.28;74.67;94005.34;5063075;28;20335;-73
2024/02/14 08:15:54;;;;;;;11.57;6.63;;;;;;;3.30;75.64;94011.97;5063598;28;20025;-73
2024/02/14 08:18:19;;;;;;;8.63;6.07;;;;;;;3.26;76.05;94010.91;5062266;28;20350;-73
2024/02/14 08:20:45;;;;;;;10.32;5.07;;;;;;;3.21;75.57;94021.44;5063222;28;20032;-73
2024/02/14 08:23:10;;;;;;;12.85;6.97;;;;;;;3.17;77.00;94023.00;5062911;28;20028;-73
2024/02/14 08:25:35;;;;;;;13.95;6.68;;;;;;;3.29;75.03;94028.03;5063084;28;20219;-72
2024/02/14 08:28:01;;;;;;;9.45;5.72;;;;;;;3.22;75.69;94025.66;5063021;28;20382;-73
2024/02/14 08:30:27;;;;;;;10.88;5.97;;;;;;;3.24;75.74;94055.16;5062965;28;20020;-73
2024/02/14 08:32:52;;;;;;;15.88;6.03;;;;;;;3.26;75.98;94039.88;5063245;28;20070;-73
2024/02/14 08:35:18;;;;;;;9.52;5.40;;;;;;;3.28;76.58;94024.59;5062822;28;20044;-73
2024/02/14 08:37:43;;;;;;;9.85;5.32;;;;;;;3.23;74.53;94027.22;5062804;28;20327;-73
2024/02/14 08:40:12;;;;;;;9.02;5.60;;;;;;;3.17;75.35;94033.53;5062983;28;20219;-73
2024/02/14 08:42:37;;;;;;;50.25;20.02;;;;;;;3.29;75.70;94039.34;5062815;28;20223;-73
2024/02/14 08:45:04;;;;;;;12.57;7.05;;;;;;;3.27;74.63;94036.19;5062631;28;20016;-73
2024/02/14 08:47:30;;;;;;;12.43;6.22;;;;;;;3.26;75.03;94041.72;5062985;28;20204;-73
2024/02/14 08:49:55;;;;;;;9.88;5.82;;;;;;;3.15;73.77;94054.88;5062830;28;20013;-73
2024/02/14 08:52:21;;;;;;;12.07;6.18;;;;;;;3.17;74.51;94036.19;5062658;28;20061;-73
2024/02/14 08:54:46;;;;;;;11.02;4.90;;;;;;;3.15;74.52;94048.81;5063772;28;20036;-91
2024/02/14 08:57:12;;;;;;;11.77;6.20;;;;;;;3.21;74.47;94064.34;5064979;28;20020;-90
2024/02/14 08:59:37;;;;;;;15.88;5.40;;;;;;;3.18;74.31;94051.72;5065262;28;20254;-93
2024/02/14 09:02:07;;;;;;;12.45;6.35;;;;;;;3.26;74.12;94052.25;5066253;28;20098;-93
2024/02/14 09:04:44;;;;;;;8.68;5.05;;;;;;;3.18;73.90;94074.66;5070488;28;20023;-93
2024/02/14 09:07:10;;;;;;;9.65;5.25;;;;;;;3.21;74.31;94053.03;5066624;28;20267;-93
2024/02/14 09:09:37;;;;;;;14.82;6.72;;;;;;;3.12;73.69;94052.00;5064818;28;20035;-93
2024/02/14 09:12:03;;;;;;;10.52;5.70;;;;;;;3.24;74.14;94063.06;5063403;28;20033;-90
2024/02/14 09:14:30;;;;;;;11.00;5.38;;;;;;;3.11;74.54;94068.81;5064105;28;20017;-91
2024/02/14 09:16:59;;;;;;;10.60;5.10;;;;;;;3.11;75.14;94068.81;5064930;28;20039;-93
2024/02/14 09:19:25;;;;;;;9.73;5.60;;;;;;;3.10;76.11;94062.00;5065787;28;20029;-91
2024/02/14 09:22:18;;;;;;;13.60;7.10;;;;;;;3.12;76.68;94044.09;5065872;28;20268;-94
2024/02/14 09:24:55;;;;;;;10.48;6.30;;;;;;;3.21;76.37;94058.31;5066123;28;20033;-92
2024/02/14 09:27:20;;;;;;;10.00;6.13;;;;;;;3.13;76.56;94056.97;5066335;28;20029;-90
2024/02/14 09:29:48;;;;;;;10.25;5.15;;;;;;;3.20;76.76;94072.53;5066655;28;20029;-93
2024/02/14 09:32:17;;;;;;;11.02;6.28;;;;;;;3.12;77.29;94071.22;5067139;28;20029;-93
2024/02/14 09:34:42;;;;;;;10.80;6.10;;;;;;;3.07;78.64;94073.03;5066971;28;20027;-88
2024/02/14 09:37:09;;;;;;;13.52;6.95;;;;;;;3.06;78.67;94077.50;5067085;28;20041;-88
2024/02/14 09:39:37;;;;;;;11.40;6.40;;;;;;;2.94;78.10;94069.06;5066324;28;20094;-88
2024/02/14 09:42:08;;;;;;;9.10;5.20;;;;;;;2.98;77.56;94073.53;5066818;28;20053;-88
2024/02/14 09:44:35;;;;;;;10.13;6.18;;;;;;;3.01;78.07;94075.66;5066598;28;20063;-87
2024/02/14 09:47:31;;;;;;;8.55;5.63;;;;;;;2.98;79.21;94068.28;5067052;28;20013;-90
2024/02/14 09:49:57;;;;;;;8.20;5.45;;;;;;;3.07;79.25;94070.41;5066893;28;20025;-87
2024/02/14 09:52:25;;;;;;;9.50;5.25;;;;;;;3.04;77.95;94076.19;5067764;28;20099;-86
2024/02/14 09:54:52;;;;;;;8.32;4.78;;;;;;;3.00;77.18;94071.44;5067198;28;20088;-87
2024/02/14 09:57:18;;;;;;;11.80;7.03;;;;;;;3.08;78.56;94074.63;5067608;28;20078;-90
2024/02/14 09:59:45;;;;;;;11.00;5.65;;;;;;;3.03;77.38;94061.44;5068092;28;20028;-89
2024/02/14 10:02:10;;;;;;;11.82;6.07;;;;;;;3.01;77.81;94070.41;5067134;28;20346;-88
2024/02/14 10:04:37;;;;;;;8.32;5.05;;;;;;;3.06;77.20;94066.97;5067864;28;20021;-88
2024/02/14 10:07:04;;;;;;;9.73;5.20;;;;;;;2.95;76.25;94058.28;5067716;28;20029;-91
2024/02/14 10:09:31;;;;;;;9.02;5.35;;;;;;;3.00;77.15;94066.19;5069545;28;20025;-91
2024/02/14 10:11:57;;;;;;;13.85;5.60;;;;;;;3.08;76.40;94056.19;5068443;28;20084;-89
2024/02/14 10:14:23;;;;;;;10.05;5.20;;;;;;;3.13;76.05;94050.91;5067241;28;20050;-87
2024/02/14 10:16:48;;;;;;;7.63;4.95;;;;;;;3.20;74.55;94070.69;5067260;28;20319;-84
2024/02/14 10:19:16;;;;;;;10.90;5.75;;;;;;;3.16;75.54;94060.94;5064922;28;20020;-83
2024/02/14 10:21:42;;;;;;;10.98;5.20;;;;;;;3.26;74.89;94057.50;5066596;28;20025;-82
2024/02/14 10:24:09;;;;;;;10.18;5.63;;;;;;;3.40;73.97;94056.75;5065164;28;20035;-82
2024/02/14 10:26:34;;;;;;;12.43;6.90;;;;;;;3.47;73.88;94058.34;5065915;28;20048;-82
2024/02/14 10:29:00;;;;;;;9.43;5.80;;;;;;;3.52;73.83;94064.41;5065805;28;20020;-82
2024/02/14 10:31:26;;;;;;;12.02;6.05;;;;;;;3.57;74.15;94060.97;5066207;28;20059;-82
2024/02/14 10:33:55;;;;;;;8.85;4.65;;;;;;;3.71;73.52;94051.47;5065910;28;20087;-83
2024/02/14 10:36:22;;;;;;;7.88;4.75;;;;;;;3.56;71.74;94062.00;5065559;28;20028;-82
2024/02/14 10:38:50;;;;;;;10.55;5.65;;;;;;;3.50;71.54;94044.63;5065786;28;20045;-83
2024/02/14 10:41:17;;;;;;;8.88;5.07;;;;;;;3.51;71.71;94048.84;5064564;28;20024;-83
2024/02/14 10:43:44;;;;;;;11.35;5.40;;;;;;;3.61;72.98;94054.13;5066051;28;20021;-83
2024/02/14 10:46:25;;;;;;;13.23;6.35;;;;;;;3.67;71.26;94053.06;5065505;28;20247;-81
2024/02/14 10:49:04;;;;;;;10.40;5.63;;;;;;;3.70;70.81;94049.88;5065910;28;20051;-82
2024/02/14 10:51:35;;;;;;;13.82;5.47;;;;;;;3.73;71.18;94057.28;5065364;28;20024;-82
2024/02/14 10:54:21;;;;;;;9.13;4.82;;;;;;;3.69;71.00;94074.69;5065181;28;20021;-83
2024/02/14 10:56:52;;;;;;;8.82;4.80;;;;;;;3.58;70.68;94054.63;5064638;28;20115;-82
2024/02/14 10:59:21;;;;;;;9.18;5.13;;;;;;;3.59;70.75;94069.41;5065179;28;20369;-82
2024/02/14 11:01:47;;;;;;;6.78;4.32;;;;;;;3.57;70.87;94067.03;5065125;28;20037;-83
2024/02/14 11:04:14;;;;;;;9.82;5.45;;;;;;;3.53;70.99;94067.81;5065373;28;20027;-84
2024/02/14 11:06:57;;;;;;;14.35;5.57;;;;;;;3.50;71.28;94071.78;5065209;28;20073;-83
2024/02/14 11:09:31;;;;;;;8.50;5.00;;;;;;;3.59;71.83;94061.50;5065428;28;20027;-82
2024/02/14 11:12:02;;;;;;;10.93;4.97;;;;;;;3.65;71.84;94057.81;5065282;28;20017;-83
2024/02/14 11:14:32;;;;;;;8.07;5.07;;;;;;;3.68;72.00;94056.47;5064469;28;20028;-83
2024/02/14 11:16:58;;;;;;;10.60;5.35;;;;;;;3.67;70.86;94053.06;5065560;28;20021;-82
2024/02/14 11:19:35;;;;;;;8.60;4.25;;;;;;;3.63;70.63;94059.13;5065364;28;20047;-83
2024/02/14 11:22:13;;;;;;;7.95;4.78;;;;;;;3.72;70.77;94055.69;5065024;28;20032;-83
2024/02/14 11:24:38;;;;;;;12.43;5.65;;;;;;;3.76;70.91;94058.59;5065037;28;20032;-83
2024/02/14 11:27:11;;;;;;;12.20;5.28;;;;;;;3.69;70.91;94061.50;5065011;28;20051;-83
2024/02/14 11:29:40;;;;;;;9.80;4.53;;;;;;;3.59;71.31;94069.41;5065137;28;20261;-83
2024/02/14 11:32:08;;;;;;;5.97;3.78;;;;;;;3.57;71.94;94074.16;5064950;28;20025;-82
2024/02/14 11:34:34;;;;;;;8.52;4.25;;;;;;;3.35;72.63;94069.91;5064668;28;20029;-83